Sluck, Belarus

11:14 AM MSK on July 25, 2016 (GMT +0300)
Minsk-2 | | Change Station

Elev 669 ft 53.88 °N, 28.03 °E | Updated 14 minutes ago

Mostly Cloudy
Mostly Cloudy
79 °F
Feels Like 79 °F
N
4
Wind Variable Wind from East

Today
High -- | Low -- °F
--% Chance of Precip.
Yesterday
High -- | Low -- °F
Precip. -- in
Pressure 30.09 in
Visibility 4.3 miles
Clouds Scattered Clouds 3500 ft
Mostly Cloudy 20000 ft
Dew Point 64 °F
Humidity 61%
Rainfall 0.00 in
Snow Depth Not available.
5:16 AM 9:14 PM
Waning Gibbous, 68% visible
METAR UMMS 250800Z 09002MPS 7000 SCT035 BKN200 26/18 Q1019 R31/CLRD// NOSIG
Pressure 30.09 in
Visibility 4.3 miles
Clouds Scattered Clouds 3500 ft
Mostly Cloudy 20000 ft
Dew Point 64 °F
Humidity 61%
Rainfall 0.00 in
Snow Depth Not available.
5:16 AM 9:14 PM
Waning Gibbous, 68% visible
METAR UMMS 250800Z 09002MPS 7000 SCT035 BKN200 26/18 Q1019 R31/CLRD// NOSIG

10-Day Weather Forecast

×

Almanac

Astronomy

Jul. 25, 2016 Rise Set
Actual Time
Civil Twilight
Nautical Twilight
Astronomical Twilight
Moon
Length of Visible Light
Length of Day
Tomorrow will be .
, % of the Moon is Illuminated

Today's Extremes

Country Highs Country Lows

Community

WunderPhotos

Upload Photos

1,927,274 photos uploaded!

WunderBlog® & News

Nearby

Air Quality

  Air Quality AQ Index Pollutant
Not available.

Snow Depth

Station Depth Elevation

Earthquake Activity

City Distance Mag. Time & Date
Minimum magnitude displayed is 2.5.

Coastal Water Temperatures

Place Temperature

Stations

Nearby Weather Stations

Station Location Temp. Windchill Dew Point Humidity Wind Precip. Elev Updated Type